KSAV/SAV METAR and TAF weather

Enter ICAO airport designator
Station Type Date Time Source
KSAV METAR 2022/01/25 04:53 UTC NOAA

KSAV 250453Z 19003KT 10SM SCT180 06/02 A2998 RMK AO2 SLP152 LAST T00560022 401611006


Station Type Date Time Source
KSAV Decoded METAR 2022/01/25 04:53 UTC NOAA

SAVANNAH INTERNATIONAL AIRPORT , GA, United States (KSAV) 32-07N 81-12W 14M
Jan 24, 2022 - 11:53 PM EST / 2022.01.25 0453 UTC
Wind: from the S (190 degrees) at 3 MPH (3 KT):0
Visibility: 10 mile(s):0
Sky conditions: partly cloudy
Temperature: 42.1 F (5.6 C)
Dew Point: 36.0 F (2.2 C)
Relative Humidity: 78%
Pressure (altimeter): 29.98 in. Hg (1015 hPa)
ob: KSAV 250453Z 19003KT 10SM SCT180 06/02 A2998 RMK AO2 SLP152 LAST T00560022 401611006
cycle: 5

Station Type Date Time Source
KSAV TAF 2022/01/24 18:34 UTC NOAA

TAF KSAV 241730Z 2418/2518 26007KT P6SM SKC
FM250000 21003KT P6SM FEW250
FM250600 26003KT P6SM OVC090

Example: see airport list